Time;durP1;ratioP1;P1;durP2;ratioP2;P2;SDS_P1;SDS_P2;PMS_P1;PMS_P2;Temp;Humidity;BMP_temperature;BMP_pressure;BME280_temperature;BME280_humidity;BME280_pressure;Samples;Min_cycle;Max_cycle;Signal;HPM_P1;HPM_P2
2023/12/12 00:00:19;;;;;;;22.87;16.47;;;;;;;5.94;62.71;94629.97;4991658;28;20260;-72
2023/12/12 00:02:45;;;;;;;26.20;16.10;;;;;;;5.93;62.74;94638.72;4976020;28;20227;-74
2023/12/12 00:05:10;;;;;;;22.23;16.10;;;;;;;5.94;62.55;94616.94;4970974;28;20261;-75
2023/12/12 00:07:36;;;;;;;24.17;16.30;;;;;;;5.73;63.35;94612.56;4978397;28;20250;-74
2023/12/12 00:10:01;;;;;;;19.73;13.97;;;;;;;5.87;63.02;94613.97;4989359;28;20358;-73
2023/12/12 00:12:27;;;;;;;13.70;11.23;;;;;;;5.85;62.23;94615.88;5004251;28;20306;-74
2023/12/12 00:14:52;;;;;;;15.43;11.40;;;;;;;5.90;62.24;94608.50;4990183;28;20227;-74
2023/12/12 00:17:17;;;;;;;12.83;11.10;;;;;;;5.95;61.89;94615.97;4988464;28;20227;-73
2023/12/12 00:19:43;;;;;;;14.87;11.67;;;;;;;6.02;61.69;94611.88;4982841;28;20361;-74
2023/12/12 00:22:09;;;;;;;15.40;11.53;;;;;;;5.98;61.97;94602.63;4992916;28;20227;-75
2023/12/12 00:24:34;;;;;;;18.07;12.40;;;;;;;5.80;62.46;94596.38;4988394;28;20183;-74
2023/12/12 00:27:00;;;;;;;16.83;12.30;;;;;;;5.88;62.32;94610.44;4988700;28;20203;-74
2023/12/12 00:29:25;;;;;;;18.37;12.17;;;;;;;5.63;63.06;94614.31;4990487;28;20253;-75
2023/12/12 00:31:51;;;;;;;16.33;12.50;;;;;;;5.78;62.51;94624.41;4987323;28;20214;-75
2023/12/12 00:34:16;;;;;;;17.50;11.87;;;;;;;5.46;63.19;94631.41;4983085;28;20233;-72
2023/12/12 00:36:42;;;;;;;17.03;11.83;;;;;;;5.54;63.21;94617.72;5004612;28;20215;-76
2023/12/12 00:39:07;;;;;;;17.90;13.20;;;;;;;5.67;62.59;94620.94;4989027;28;20198;-72
2023/12/12 00:41:34;;;;;;;16.30;12.40;;;;;;;5.71;62.48;94614.47;4989554;28;20227;-73
2023/12/12 00:43:59;;;;;;;17.97;13.20;;;;;;;5.74;62.53;94609.00;4985462;28;20258;-73
2023/12/12 00:46:25;;;;;;;15.53;12.67;;;;;;;5.59;62.93;94630.38;4992231;28;20254;-75
2023/12/12 00:48:50;;;;;;;16.43;12.17;;;;;;;5.70;62.40;94630.28;4984793;28;20222;-73
2023/12/12 00:51:15;;;;;;;18.83;12.73;;;;;;;5.18;64.29;94634.69;4991539;28;20218;-72
2023/12/12 00:53:41;;;;;;;18.17;12.70;;;;;;;5.45;63.84;94614.13;4988724;28;20222;-75
2023/12/12 00:56:06;;;;;;;18.03;12.67;;;;;;;5.58;63.44;94616.47;4990831;28;20317;-74
2023/12/12 00:58:32;;;;;;;20.30;13.27;;;;;;;5.45;63.88;94634.13;4989182;28;20261;-73
2023/12/12 01:00:57;;;;;;;20.53;13.23;;;;;;;5.46;64.35;94631.41;4969832;28;20304;-73
2023/12/12 01:03:23;;;;;;;17.97;13.07;;;;;;;5.56;63.83;94634.06;4982721;28;20178;-73
2023/12/12 01:05:48;;;;;;;19.57;13.73;;;;;;;5.48;63.85;94624.28;4989824;28;20369;-73
2023/12/12 01:08:13;;;;;;;17.47;13.53;;;;;;;5.52;63.94;94623.06;4989321;28;20219;-74
2023/12/12 01:10:39;;;;;;;19.57;13.33;;;;;;;5.47;64.27;94624.41;4989836;28;20230;-74
2023/12/12 01:13:04;;;;;;;18.17;12.60;;;;;;;5.58;64.18;94645.16;4989333;28;20231;-74
2023/12/12 01:15:30;;;;;;;21.23;13.27;;;;;;;5.64;63.96;94641.22;4985251;28;20211;-73
2023/12/12 01:17:55;;;;;;;17.27;13.17;;;;;;;5.79;63.27;94647.75;4990244;28;20211;-72
2023/12/12 01:20:21;;;;;;;18.27;13.53;;;;;;;5.73;63.70;94643.88;4994168;28;20215;-72
2023/12/12 01:22:46;;;;;;;23.77;14.17;;;;;;;5.68;64.13;94646.03;4998117;28;20234;-72
2023/12/12 01:25:12;;;;;;;20.17;14.73;;;;;;;5.80;63.68;94641.59;4993700;28;20254;-72
2023/12/12 01:27:37;;;;;;;19.07;14.37;;;;;;;5.78;63.95;94633.06;4989836;28;20185;-73
2023/12/12 01:30:03;;;;;;;20.80;14.23;;;;;;;5.89;63.69;94638.16;4988590;28;20279;-73
2023/12/12 01:32:28;;;;;;;18.67;15.07;;;;;;;5.81;63.82;94656.25;4983227;28;20298;-72
2023/12/12 01:34:53;;;;;;;20.53;15.23;;;;;;;5.77;63.70;94657.47;4986175;28;20219;-72
2023/12/12 01:37:19;;;;;;;26.37;16.93;;;;;;;5.83;63.60;94654.34;4981384;28;20258;-72
2023/12/12 01:39:44;;;;;;;22.53;16.00;;;;;;;5.92;63.70;94650.13;4985080;28;20265;-74
2023/12/12 01:42:11;;;;;;;22.10;16.67;;;;;;;5.99;63.50;94646.06;4982502;28;20179;-73
2023/12/12 01:44:36;;;;;;;23.27;16.60;;;;;;;5.88;63.58;94620.88;4983079;28;20233;-74
2023/12/12 01:47:02;;;;;;;25.57;17.87;;;;;;;5.85;63.63;94625.50;4993502;28;20310;-75
2023/12/12 01:49:28;;;;;;;25.67;17.93;;;;;;;5.94;63.82;94614.31;4991104;28;20215;-71
2023/12/12 01:51:54;;;;;;;24.90;18.03;;;;;;;5.81;64.42;94608.47;4983262;28;20222;-71
2023/12/12 01:54:20;;;;;;;25.33;17.83;;;;;;;5.73;64.80;94630.81;4983292;28;20248;-71
2023/12/12 01:56:49;;;;;;;27.00;18.43;;;;;;;5.90;64.30;94628.53;4956123;28;20223;-71
2023/12/12 01:59:15;;;;;;;26.60;19.47;;;;;;;5.81;64.23;94626.75;4949108;28;20262;-70
2023/12/12 02:01:41;;;;;;;30.33;20.63;;;;;;;5.64;64.90;94620.34;4976812;28;20222;-71
2023/12/12 02:04:07;;;;;;;29.40;20.87;;;;;;;5.70;64.40;94633.72;4980288;28;20227;-71
2023/12/12 02:06:32;;;;;;;29.83;22.13;;;;;;;5.70;64.16;94630.28;4984920;28;20223;-71
2023/12/12 02:08:57;;;;;;;33.10;22.27;;;;;;;5.77;63.86;94631.38;4989095;28;20285;-71
2023/12/12 02:11:23;;;;;;;27.47;19.97;;;;;;;5.60;63.91;94642.44;4980910;28;20238;-70
2023/12/12 02:13:48;;;;;;;27.60;19.70;;;;;;;5.58;63.91;94645.16;4990994;28;20238;-70
2023/12/12 02:16:14;;;;;;;25.67;18.63;;;;;;;5.40;64.37;94636.31;4991329;28;20274;-70
2023/12/12 02:18:40;;;;;;;26.80;20.43;;;;;;;5.49;64.04;94633.75;4985343;28;20207;-70
2023/12/12 02:21:05;;;;;;;29.50;21.80;;;;;;;5.53;63.71;94634.31;4987623;28;20306;-70
2023/12/12 02:23:32;;;;;;;29.37;20.97;;;;;;;5.46;63.86;94641.00;4975872;28;20302;-70
2023/12/12 02:25:59;;;;;;;30.97;20.93;;;;;;;5.25;65.10;94654.06;4994653;28;20261;-70
2023/12/12 02:28:25;;;;;;;30.17;20.57;;;;;;;5.30;64.36;94652.72;4986215;28;20238;-70
2023/12/12 02:30:51;;;;;;;27.80;21.37;;;;;;;5.26;64.55;94648.72;4984901;28;20245;-71
2023/12/12 02:33:17;;;;;;;31.80;22.43;;;;;;;5.36;64.37;94651.38;4984087;28;20217;-71
2023/12/12 02:35:43;;;;;;;30.77;24.07;;;;;;;5.31;64.33;94648.34;4986251;28;20234;-71
2023/12/12 02:38:09;;;;;;;29.13;22.63;;;;;;;5.37;64.58;94658.25;4988814;28;20281;-72
2023/12/12 02:40:34;;;;;;;31.97;23.07;;;;;;;5.26;64.54;94666.97;4974689;28;20232;-71
2023/12/12 02:43:00;;;;;;;35.47;23.37;;;;;;;5.28;64.62;94659.03;4974217;28;20238;-72
2023/12/12 02:45:25;;;;;;;34.20;24.73;;;;;;;5.28;65.02;94667.66;4990959;28;20218;-72
2023/12/12 02:47:51;;;;;;;30.20;22.73;;;;;;;5.44;64.21;94675.03;4985880;28;20215;-72
2023/12/12 02:50:17;;;;;;;33.83;24.20;;;;;;;5.18;64.74;94682.41;4988594;28;20226;-72
2023/12/12 02:52:43;;;;;;;30.77;23.80;;;;;;;5.19;65.18;94680.66;4986220;28;20226;-71
2023/12/12 02:55:08;;;;;;;31.50;24.33;;;;;;;4.91;65.78;94682.09;4972423;28;20227;-71
2023/12/12 02:57:34;;;;;;;30.77;25.30;;;;;;;4.85;66.36;94691.22;4965645;28;20206;-71
2023/12/12 02:59:59;;;;;;;28.60;23.23;;;;;;;4.90;66.28;94673.44;4983532;28;20189;-71
2023/12/12 03:02:25;;;;;;;29.97;23.60;;;;;;;4.98;66.08;94658.00;4986015;28;20305;-72
2023/12/12 03:04:50;;;;;;;27.63;20.27;;;;;;;5.20;65.46;94644.03;4979990;28;20381;-72
2023/12/12 03:07:16;;;;;;;25.57;20.83;;;;;;;4.98;65.84;94646.78;4984506;28;20235;-72
2023/12/12 03:09:42;;;;;;;28.00;22.60;;;;;;;5.10;66.06;94661.38;4984722;28;20210;-71
2023/12/12 03:12:07;;;;;;;27.40;20.37;;;;;;;5.08;66.13;94645.06;4982559;28;20196;-72
2023/12/12 03:14:34;;;;;;;29.93;19.87;;;;;;;5.16;66.01;94640.03;4988981;28;20250;-72
2023/12/12 03:17:00;;;;;;;30.37;21.37;;;;;;;5.17;65.85;94646.06;4979021;28;20339;-71
2023/12/12 03:19:25;;;;;;;28.27;19.83;;;;;;;4.98;66.38;94636.34;4988494;28;20296;-72
2023/12/12 03:21:51;;;;;;;30.10;22.47;;;;;;;4.84;66.97;94638.31;4981847;28;20282;-72
2023/12/12 03:24:17;;;;;;;29.60;23.73;;;;;;;4.91;66.51;94635.19;4976014;28;20195;-73
2023/12/12 03:26:43;;;;;;;36.27;26.30;;;;;;;4.91;66.40;94640.41;4984931;28;20232;-72
2023/12/12 03:29:09;;;;;;;33.27;26.80;;;;;;;4.77;67.00;94637.16;4986107;28;20311;-72
2023/12/12 03:31:34;;;;;;;33.07;25.67;;;;;;;5.06;66.35;94649.56;4984989;28;20280;-72
2023/12/12 03:34:00;;;;;;;34.10;25.93;;;;;;;5.14;65.99;94628.91;4986305;28;20247;-71
2023/12/12 03:36:25;;;;;;;32.60;25.33;;;;;;;5.03;65.97;94640.22;4979774;28;20263;-72
2023/12/12 03:38:51;;;;;;;32.07;25.47;;;;;;;4.99;66.48;94623.19;4984287;28;20227;-72
2023/12/12 03:41:17;;;;;;;30.80;24.70;;;;;;;5.00;65.90;94637.06;4979523;28;20262;-72
2023/12/12 03:43:42;;;;;;;33.20;25.23;;;;;;;4.95;66.28;94626.19;4969113;28;20259;-72
2023/12/12 03:46:12;;;;;;;30.33;24.13;;;;;;;5.02;65.97;94624.69;4966895;28;20235;-71
2023/12/12 03:48:37;;;;;;;32.13;24.13;;;;;;;5.03;65.79;94628.97;4984639;28;20255;-71
2023/12/12 03:51:03;;;;;;;28.27;22.17;;;;;;;5.14;65.72;94636.72;4974913;28;20192;-71
2023/12/12 03:53:28;;;;;;;28.60;23.23;;;;;;;5.26;65.23;94655.72;4980106;28;20227;-71
2023/12/12 03:55:54;;;;;;;33.57;24.70;;;;;;;5.08;65.56;94658.09;4982981;28;20303;-71
2023/12/12 03:58:19;;;;;;;29.03;21.90;;;;;;;5.04;66.28;94654.91;4986613;28;20235;-71
2023/12/12 04:00:45;;;;;;;27.27;21.53;;;;;;;5.23;65.18;94653.38;4983612;28;20184;-71
2023/12/12 04:03:10;;;;;;;28.87;20.77;;;;;;;5.21;65.43;94639.63;4987208;28;20274;-70
2023/12/12 04:05:35;;;;;;;25.53;20.57;;;;;;;5.33;65.15;94636.00;4994740;28;20240;-71
2023/12/12 04:08:01;;;;;;;25.70;19.63;;;;;;;5.41;64.47;94633.56;4984873;28;20227;-70
2023/12/12 04:10:26;;;;;;;26.20;20.20;;;;;;;5.40;64.60;94650.19;4986902;28;20231;-70
2023/12/12 04:12:52;;;;;;;26.10;20.80;;;;;;;5.31;65.12;94667.41;4980819;28;20216;-70
2023/12/12 04:15:17;;;;;;;29.23;20.67;;;;;;;5.46;64.61;94664.47;4988359;28;20228;-71
2023/12/12 04:17:42;;;;;;;27.30;20.77;;;;;;;5.45;64.76;94666.28;4975533;28;20318;-71
2023/12/12 04:20:08;;;;;;;28.03;18.70;;;;;;;5.37;64.72;94673.06;4981622;28;20232;-71
2023/12/12 04:22:34;;;;;;;27.60;19.37;;;;;;;5.44;64.93;94679.44;4976945;28;20302;-72
2023/12/12 04:24:59;;;;;;;28.13;18.93;;;;;;;5.44;64.71;94672.41;4986950;28;20227;-72
2023/12/12 04:27:25;;;;;;;30.70;20.37;;;;;;;5.16;65.88;94681.75;4986116;28;20207;-72
2023/12/12 04:29:50;;;;;;;27.37;18.63;;;;;;;5.34;65.31;94683.75;4992042;28;20219;-71
2023/12/12 04:32:16;;;;;;;27.53;19.07;;;;;;;5.54;64.51;94675.09;4990156;28;20256;-71
2023/12/12 04:34:41;;;;;;;22.83;18.17;;;;;;;5.55;64.74;94675.91;4988498;28;20224;-71
2023/12/12 04:37:07;;;;;;;25.53;18.13;;;;;;;5.65;64.24;94688.03;4980050;28;20235;-72
2023/12/12 04:39:33;;;;;;;25.73;18.53;;;;;;;5.61;63.90;94678.00;4986951;28;20203;-72
2023/12/12 04:41:58;;;;;;;23.40;17.47;;;;;;;5.48;64.68;94691.22;4970232;28;20190;-73
2023/12/12 04:44:23;;;;;;;24.30;18.30;;;;;;;5.62;64.07;94690.09;4981727;28;20223;-73
2023/12/12 04:46:49;;;;;;;26.70;18.80;;;;;;;5.26;64.98;94687.81;4974971;28;20231;-73
2023/12/12 04:49:15;;;;;;;23.50;17.87;;;;;;;5.46;64.84;94688.78;4965584;28;20302;-73
2023/12/12 04:51:40;;;;;;;26.13;17.77;;;;;;;5.38;64.72;94687.78;4977396;28;20188;-74
2023/12/12 04:54:05;;;;;;;26.07;17.50;;;;;;;5.42;64.73;94696.97;4967913;28;20180;-72
2023/12/12 04:56:31;;;;;;;25.50;18.53;;;;;;;5.55;64.35;94697.59;4983018;28;20223;-70
2023/12/12 04:58:57;;;;;;;24.63;17.20;;;;;;;5.65;64.25;94703.69;4987048;28;20376;-71
2023/12/12 05:01:22;;;;;;;25.70;18.20;;;;;;;5.68;64.02;94702.63;4982999;28;20227;-71
2023/12/12 05:03:48;;;;;;;24.40;17.27;;;;;;;5.83;63.76;94710.94;4984296;28;20241;-71
2023/12/12 05:06:14;;;;;;;23.80;18.03;;;;;;;5.72;63.91;94707.44;4982604;28;20311;-72
2023/12/12 05:08:41;;;;;;;25.00;18.03;;;;;;;5.62;64.19;94716.19;4982330;28;20595;-73
2023/12/12 05:11:07;;;;;;;22.27;16.90;;;;;;;5.68;64.25;94718.28;4980414;28;20227;-72
2023/12/12 05:13:32;;;;;;;24.40;17.50;;;;;;;5.80;64.32;94734.66;4988207;28;20227;-73
2023/12/12 05:15:58;;;;;;;21.70;16.40;;;;;;;5.87;63.82;94726.19;4986087;28;20266;-73
2023/12/12 05:18:23;;;;;;;20.77;15.83;;;;;;;5.93;63.36;94728.31;4979649;28;20247;-72
2023/12/12 05:20:48;;;;;;;19.90;14.47;;;;;;;5.89;63.25;94720.84;4984781;28;20314;-73
2023/12/12 05:23:14;;;;;;;21.47;16.00;;;;;;;5.84;63.55;94728.22;4983476;28;20287;-73
2023/12/12 05:25:40;;;;;;;20.33;14.20;;;;;;;5.57;64.32;94736.59;4982424;28;20219;-73
2023/12/12 05:28:05;;;;;;;21.57;15.00;;;;;;;5.33;64.90;94732.47;4977183;28;20234;-74
2023/12/12 05:30:31;;;;;;;21.27;14.60;;;;;;;5.33;64.68;94726.44;4986020;28;20199;-72
2023/12/12 05:32:57;;;;;;;20.80;14.90;;;;;;;5.58;63.88;94733.03;4983787;28;20184;-71
2023/12/12 05:35:22;;;;;;;19.00;14.17;;;;;;;5.80;63.42;94726.81;4982009;28;20232;-72
2023/12/12 05:37:48;;;;;;;26.50;15.10;;;;;;;5.86;63.62;94721.09;4969907;28;20223;-72
2023/12/12 05:40:14;;;;;;;19.50;14.60;;;;;;;5.88;63.44;94727.84;4987122;28;20234;-72
2023/12/12 05:42:40;;;;;;;21.93;14.80;;;;;;;5.82;63.81;94720.53;4989287;28;20277;-72
2023/12/12 05:45:07;;;;;;;21.97;15.10;;;;;;;5.61;64.35;94732.78;4991934;28;20195;-75
2023/12/12 05:47:32;;;;;;;20.33;14.37;;;;;;;5.77;64.29;94732.31;4986131;28;20211;-72
2023/12/12 05:49:58;;;;;;;20.23;14.80;;;;;;;5.88;63.49;94740.06;4982267;28;20224;-76
2023/12/12 05:52:23;;;;;;;22.10;15.60;;;;;;;5.88;63.18;94734.84;4979576;28;20239;-74
2023/12/12 05:54:51;;;;;;;16.53;13.57;;;;;;;5.80;63.38;94739.88;4972382;28;20231;-73
2023/12/12 05:57:16;;;;;;;22.57;14.03;;;;;;;5.92;63.19;94746.69;4966238;28;20279;-74
2023/12/12 05:59:42;;;;;;;21.43;14.87;;;;;;;5.86;63.72;94731.53;4979175;28;20231;-70
2023/12/12 06:02:07;;;;;;;21.37;15.00;;;;;;;5.89;63.84;94736.50;4983234;28;20236;-71
2023/12/12 06:04:35;;;;;;;20.90;15.37;;;;;;;5.91;63.67;94750.25;4988724;28;20313;-71
2023/12/12 06:07:01;;;;;;;26.67;16.20;;;;;;;6.10;63.05;94744.31;4980987;28;20235;-70
2023/12/12 06:09:27;;;;;;;22.70;15.97;;;;;;;5.94;63.59;94739.59;4980358;28;20185;-72
2023/12/12 06:11:52;;;;;;;20.13;15.60;;;;;;;6.05;63.25;94747.31;4988696;28;20235;-70
2023/12/12 06:14:18;;;;;;;21.33;15.07;;;;;;;6.12;62.96;94748.47;4983395;28;20246;-71
2023/12/12 06:16:43;;;;;;;21.40;16.20;;;;;;;6.15;63.02;94736.94;4981128;28;20223;-69
2023/12/12 06:19:09;;;;;;;18.50;14.57;;;;;;;6.26;62.50;94734.22;4982390;28;20242;-71
2023/12/12 06:21:34;;;;;;;22.03;14.90;;;;;;;6.26;62.12;94728.16;4986122;28;20206;-69
2023/12/12 06:24:03;;;;;;;20.77;14.60;;;;;;;6.39;62.75;94739.22;4987497;28;20219;-69
2023/12/12 06:26:30;;;;;;;20.20;15.23;;;;;;;6.31;61.99;94737.25;4983726;28;20219;-67
2023/12/12 06:28:55;;;;;;;27.87;15.20;;;;;;;6.36;62.09;94718.56;4980004;28;20228;-68
2023/12/12 06:31:23;;;;;;;19.93;14.70;;;;;;;6.45;61.90;94728.22;4987816;28;20232;-72
2023/12/12 06:33:49;;;;;;;20.77;14.47;;;;;;;6.50;61.72;94735.66;4984671;28;20212;-71
2023/12/12 06:36:15;;;;;;;22.70;15.83;;;;;;;6.52;61.69;94724.13;4979439;28;20179;-71
2023/12/12 06:38:42;;;;;;;22.70;15.53;;;;;;;6.56;61.49;94733.31;4981720;28;20223;-71
2023/12/12 06:41:09;;;;;;;24.77;15.30;;;;;;;6.52;61.12;94737.19;4980946;28;20219;-72
2023/12/12 06:43:34;;;;;;;19.50;15.17;;;;;;;6.49;61.54;94720.94;4983137;28;20275;-71
2023/12/12 06:46:00;;;;;;;18.23;14.73;;;;;;;6.53;61.44;94731.00;4985358;28;20226;-70
2023/12/12 06:48:25;;;;;;;20.73;14.60;;;;;;;6.57;61.40;94739.38;4978985;28;20296;-72
2023/12/12 06:50:52;;;;;;;23.17;16.33;;;;;;;6.46;61.62;94742.09;4989649;28;20281;-70
2023/12/12 06:53:18;;;;;;;20.07;14.90;;;;;;;6.51;61.70;94751.19;4980794;28;20223;-70
2023/12/12 06:55:44;;;;;;;24.30;15.90;;;;;;;6.59;61.93;94761.78;4971271;28;20222;-70
2023/12/12 06:58:11;;;;;;;23.30;16.27;;;;;;;6.73;61.49;94775.44;4971742;28;20302;-72
2023/12/12 07:00:36;;;;;;;23.80;16.30;;;;;;;6.82;61.45;94770.25;4976053;28;20198;-73
2023/12/12 07:03:02;;;;;;;23.30;15.33;;;;;;;7.07;60.38;94773.28;4979624;28;20196;-71
2023/12/12 07:05:27;;;;;;;21.90;14.43;;;;;;;7.01;60.07;94760.78;4988038;28;20342;-74
2023/12/12 07:07:53;;;;;;;21.13;14.63;;;;;;;7.14;59.69;94752.69;4988529;28;20228;-73
2023/12/12 07:10:19;;;;;;;19.20;14.00;;;;;;;7.14;59.96;94760.50;4978660;28;20231;-74
2023/12/12 07:12:44;;;;;;;21.57;15.00;;;;;;;7.33;59.20;94760.50;4978003;28;20192;-74
2023/12/12 07:15:12;;;;;;;19.83;14.40;;;;;;;7.19;59.61;94773.97;4985269;28;20266;-73
2023/12/12 07:17:38;;;;;;;18.27;14.30;;;;;;;6.96;60.16;94768.19;4984456;28;20386;-75
2023/12/12 07:20:05;;;;;;;16.10;12.57;;;;;;;6.93;60.16;94777.13;4989686;28;20271;-73
2023/12/12 07:22:30;;;;;;;20.43;12.50;;;;;;;6.91;60.32;94773.00;4976343;28;20220;-73
2023/12/12 07:24:56;;;;;;;18.97;13.40;;;;;;;6.95;60.32;94777.84;4972071;28;20224;-72
2023/12/12 07:27:21;;;;;;;18.23;12.70;;;;;;;6.90;60.60;94774.78;4991223;28;20198;-77
2023/12/12 07:29:47;;;;;;;19.37;13.50;;;;;;;7.00;60.45;94765.19;4978730;28;20220;-72
2023/12/12 07:32:12;;;;;;;17.37;13.80;;;;;;;7.13;60.20;94771.91;4980540;28;20224;-74
2023/12/12 07:34:38;;;;;;;21.53;14.17;;;;;;;7.03;60.71;94787.59;4988992;28;20239;-73
2023/12/12 07:37:03;;;;;;;19.77;14.70;;;;;;;7.17;60.88;94770.69;4984219;28;20234;-69
2023/12/12 07:39:30;;;;;;;21.67;14.67;;;;;;;7.53;59.85;94781.41;4988135;28;20211;-68
2023/12/12 07:41:56;;;;;;;23.40;13.93;;;;;;;7.65;59.32;94769.84;4963717;28;20250;-67
2023/12/12 07:44:22;;;;;;;19.57;13.53;;;;;;;7.78;59.04;94767.75;4963115;28;20232;-69
2023/12/12 07:46:47;;;;;;;21.23;13.80;;;;;;;7.83;58.62;94778.66;4980530;28;20281;-71
2023/12/12 07:49:13;;;;;;;22.67;14.10;;;;;;;7.89;58.49;94783.31;4982484;28;20220;-71
2023/12/12 07:51:38;;;;;;;19.47;14.13;;;;;;;7.94;59.08;94786.31;4986319;28;20196;-72
2023/12/12 07:54:05;;;;;;;20.17;13.43;;;;;;;8.02;58.36;94787.38;4990729;28;20199;-71
2023/12/12 07:56:31;;;;;;;25.00;13.93;;;;;;;8.11;58.37;94781.31;4980311;28;20278;-71
2023/12/12 07:58:57;;;;;;;18.67;11.90;;;;;;;8.09;57.73;94778.84;4988289;28;20239;-71
2023/12/12 08:01:22;;;;;;;14.97;11.27;;;;;;;8.08;57.91;94777.19;4991966;28;20229;-72
2023/12/12 08:03:47;;;;;;;20.60;11.50;;;;;;;8.19;57.56;94768.34;4990931;28;20195;-71
2023/12/12 08:06:13;;;;;;;16.33;12.00;;;;;;;8.26;57.42;94771.19;4984324;28;20323;-72
2023/12/12 08:08:38;;;;;;;19.27;12.47;;;;;;;8.23;57.26;94768.88;4978756;28;20247;-72
2023/12/12 08:11:04;;;;;;;16.40;11.73;;;;;;;8.38;56.69;94770.06;4981284;28;20216;-73
2023/12/12 08:13:30;;;;;;;17.63;11.50;;;;;;;8.38;56.49;94768.25;4972043;28;20303;-73
2023/12/12 08:15:56;;;;;;;16.47;11.63;;;;;;;8.47;56.37;94768.38;4973547;28;20219;-72
2023/12/12 08:18:21;;;;;;;20.73;11.57;;;;;;;8.55;56.11;94773.72;4988197;28;20211;-75
2023/12/12 08:20:47;;;;;;;18.23;13.87;;;;;;;8.70;56.08;94771.47;4990786;28;20251;-75
2023/12/12 08:23:13;;;;;;;18.80;11.67;;;;;;;8.84;55.58;94771.78;4986140;28;20278;-73
2023/12/12 08:25:38;;;;;;;18.73;12.13;;;;;;;8.78;55.59;94775.00;4990777;28;20223;-71
2023/12/12 08:28:04;;;;;;;21.30;12.30;;;;;;;8.55;55.99;94773.72;4985924;28;20223;-70
2023/12/12 08:30:30;;;;;;;20.57;13.10;;;;;;;8.92;55.43;94776.28;4980303;28;20204;-76
2023/12/12 08:32:55;;;;;;;25.33;12.10;;;;;;;9.11;54.58;94767.47;4984791;28;20224;-75
2023/12/12 08:35:21;;;;;;;20.30;12.47;;;;;;;8.90;55.02;94761.66;4983853;28;20237;-74
2023/12/12 08:37:47;;;;;;;20.47;13.07;;;;;;;8.99;55.05;94768.66;4986162;28;20232;-73
2023/12/12 08:40:13;;;;;;;21.83;13.03;;;;;;;9.13;54.90;94751.59;4974473;28;20264;-74
2023/12/12 08:42:39;;;;;;;19.47;12.60;;;;;;;9.25;54.23;94759.09;4970006;28;20279;-73
2023/12/12 08:45:05;;;;;;;23.17;12.93;;;;;;;9.13;54.51;94755.03;4978098;28;20192;-74
2023/12/12 08:47:31;;;;;;;23.67;12.03;;;;;;;9.25;54.40;94753.03;4989766;28;20314;-72
2023/12/12 08:49:56;;;;;;;19.17;12.57;;;;;;;9.25;54.00;94761.72;4987204;28;20211;-75
2023/12/12 08:52:21;;;;;;;17.67;11.50;;;;;;;9.26;54.42;94763.34;4985198;28;20232;-75
2023/12/12 08:54:47;;;;;;;16.60;11.10;;;;;;;9.13;54.87;94756.84;4983667;28;20196;-73
2023/12/12 08:57:15;;;;;;;17.50;11.13;;;;;;;9.23;54.77;94762.84;4983860;28;20196;-77
2023/12/12 08:59:41;;;;;;;16.67;10.37;;;;;;;9.27;54.59;94762.41;4984010;28;20287;-72
2023/12/12 09:02:06;;;;;;;16.37;9.93;;;;;;;9.29;54.56;94751.72;4970056;28;20306;-72
2023/12/12 09:04:32;;;;;;;14.87;10.70;;;;;;;9.30;54.64;94753.38;4971724;28;21056;-73
2023/12/12 09:06:58;;;;;;;15.13;9.70;;;;;;;9.39;54.47;94762.16;4983938;28;20250;-74
2023/12/12 09:09:27;;;;;;;17.63;9.87;;;;;;;9.52;54.40;94767.03;4982373;28;20675;-69
2023/12/12 09:11:52;;;;;;;19.03;13.17;;;;;;;9.50;53.90;94754.06;4965410;28;20228;-72
2023/12/12 09:14:17;;;;;;;20.77;13.93;;;;;;;9.74;53.65;94766.53;4985655;28;20226;-74
2023/12/12 09:16:43;;;;;;;19.20;14.00;;;;;;;9.56;53.55;94763.13;4989372;28;20223;-75
2023/12/12 09:19:11;;;;;;;24.17;14.40;;;;;;;9.50;53.99;94768.00;4985645;28;20228;-71
2023/12/12 09:21:37;;;;;;;19.43;14.00;;;;;;;9.47;54.49;94770.09;4980477;28;20206;-75
2023/12/12 09:24:02;;;;;;;23.83;14.07;;;;;;;9.53;54.30;94780.00;4986724;28;20218;-71
2023/12/12 09:26:28;;;;;;;24.43;14.10;;;;;;;9.42;54.52;94778.44;4970665;28;20228;-80
2023/12/12 09:28:53;;;;;;;21.27;13.33;;;;;;;9.52;54.49;94780.97;4988024;28;20298;-71
2023/12/12 09:31:29;;;;;;;23.00;12.10;;;;;;;9.48;54.76;94779.63;4977060;28;20220;-76
2023/12/12 09:33:55;;;;;;;15.03;11.80;;;;;;;9.39;55.04;94775.28;4963676;28;20243;-75
2023/12/12 09:36:21;;;;;;;21.47;15.17;;;;;;;9.39;55.10;94772.66;4983176;28;20302;-72
2023/12/12 09:38:46;;;;;;;18.80;13.90;;;;;;;9.43;55.16;94760.88;4987126;28;20306;-72
2023/12/12 09:41:23;;;;;;;9.87;7.33;;;;;;;9.37;54.73;94770.19;4987498;28;20244;-72
2023/12/12 09:43:50;;;;;;;14.83;7.63;;;;;;;9.47;54.42;94759.59;4986443;28;20235;-73
2023/12/12 09:46:16;;;;;;;9.53;6.30;;;;;;;9.61;54.07;94751.19;4987450;28;20220;-73
2023/12/12 09:48:43;;;;;;;9.90;5.27;;;;;;;9.72;53.95;94743.06;4990705;28;20187;-71
2023/12/12 09:51:14;;;;;;;10.50;4.80;;;;;;;9.88;53.23;94741.53;4967259;28;20196;-74
2023/12/12 09:53:47;;;;;;;7.37;4.23;;;;;;;9.97;52.86;94742.41;4973191;28;20226;-72
2023/12/12 09:56:17;;;;;;;6.13;3.93;;;;;;;10.19;52.29;94752.41;4978743;28;20347;-75
2023/12/12 09:58:48;;;;;;;6.50;3.30;;;;;;;10.26;51.97;94732.38;4981037;28;20259;-72
2023/12/12 10:01:15;;;;;;;5.67;3.63;;;;;;;10.45;51.62;94733.16;4979895;28;20220;-74
2023/12/12 10:03:41;;;;;;;11.27;4.30;;;;;;;10.42;51.67;94739.56;4981363;28;20179;-75
2023/12/12 10:06:09;;;;;;;14.47;5.70;;;;;;;10.51;51.63;94727.28;4971780;28;20290;-68
2023/12/12 10:08:39;;;;;;;28.60;11.33;;;;;;;10.59;51.69;94733.41;4970349;28;20216;-75
2023/12/12 10:11:09;;;;;;;8.23;3.93;;;;;;;10.42;51.37;94729.03;4965436;28;20232;-73
2023/12/12 10:13:53;;;;;;;18.47;8.30;;;;;;;10.42;51.88;94738.75;4979016;28;20228;-74
2023/12/12 10:16:20;;;;;;;20.53;8.10;;;;;;;10.53;51.43;94741.94;4998429;28;20733;-73
2023/12/12 10:18:46;;;;;;;13.50;6.20;;;;;;;10.68;51.58;94749.19;4981075;28;20200;-72
2023/12/12 10:21:22;;;;;;;5.53;3.10;;;;;;;10.59;50.89;94740.47;4981144;28;20190;-75
2023/12/12 10:23:50;;;;;;;6.80;3.20;;;;;;;10.79;50.70;94738.38;4979740;28;20220;-79
2023/12/12 10:26:23;;;;;;;6.90;3.93;;;;;;;11.02;50.57;94742.06;4985684;28;20212;-74
2023/12/12 10:28:48;;;;;;;10.30;4.57;;;;;;;11.04;50.32;94758.53;4982978;28;20225;-75
2023/12/12 10:31:14;;;;;;;11.63;5.00;;;;;;;10.97;50.42;94760.16;4984294;28;20760;-74
2023/12/12 10:33:39;;;;;;;10.50;5.67;;;;;;;10.89;50.50;94761.94;4982815;28;20234;-73
2023/12/12 10:36:09;;;;;;;6.63;4.93;;;;;;;10.89;50.62;94760.13;4983494;28;20234;-76
2023/12/12 10:38:36;;;;;;;9.33;4.60;;;;;;;10.77;50.87;94740.34;4982999;28;20234;-78
2023/12/12 10:41:14;;;;;;;8.97;4.60;;;;;;;10.88;50.92;94734.81;4974840;28;20227;-76
2023/12/12 10:43:41;;;;;;;8.73;4.53;;;;;;;10.98;50.96;94738.09;4974665;28;20290;-76
2023/12/12 10:46:17;;;;;;;9.53;4.40;;;;;;;11.06;50.88;94731.22;4980735;28;20224;-76
2023/12/12 10:48:48;;;;;;;9.47;5.53;;;;;;;11.18;50.58;94741.28;4981435;28;20187;-76
2023/12/12 10:51:17;;;;;;;10.60;5.03;;;;;;;11.07;50.61;94751.31;4979022;28;20188;-76
2023/12/12 10:53:44;;;;;;;14.30;8.23;;;;;;;11.03;50.86;94743.69;4977595;28;20227;-77
2023/12/12 10:56:12;;;;;;;9.47;4.57;;;;;;;10.92;51.36;94757.16;4983580;28;20334;-76
2023/12/12 10:58:40;;;;;;;10.90;5.60;;;;;;;10.94;51.33;94760.47;4979567;28;20228;-77
2023/12/12 11:01:08;;;;;;;8.77;5.33;;;;;;;10.80;51.36;94751.38;4981664;28;20302;-77
2023/12/12 11:03:35;;;;;;;8.00;3.97;;;;;;;10.94;51.59;94759.66;4982757;28;20271;-76
2023/12/12 11:06:01;;;;;;;6.47;3.10;;;;;;;10.89;51.24;94756.69;4986144;28;20238;-76
2023/12/12 11:08:27;;;;;;;7.93;3.33;;;;;;;10.95;51.27;94763.91;4991919;28;20212;-75
2023/12/12 11:10:54;;;;;;;7.17;3.40;;;;;;;10.81;51.15;94752.22;4980883;28;20228;-75
2023/12/12 11:13:21;;;;;;;8.97;3.67;;;;;;;10.76;51.21;94751.84;4982209;28;20302;-75
2023/12/12 11:15:47;;;;;;;6.43;3.47;;;;;;;10.86;51.18;94746.47;4990406;28;20196;-75
2023/12/12 11:18:15;;;;;;;5.83;3.53;;;;;;;10.76;51.36;94746.59;4988513;28;20223;-75
2023/12/12 11:20:41;;;;;;;5.77;3.97;;;;;;;11.08;51.07;94760.84;4982274;28;20224;-74